หน้าหลัก
METAR-TAF:

METAR-TAF

ท่าอากาศยาน :

เอลแพโซ, เทกซัส, สหรัฐอเมริกา

ละติจูด: 31-48-40N, ลองจิจูด: 106-22-33W, ความสูง: 1206 ม.

การสังเกตสภาพอากาศปัจจุบัน

รายงานได้ทำขึ้นเมื่อ 39 นาทีที่แล้ว ณ เวลา 13:51 UTC
ลม 5 นอตจากใต้/ตะวันออกเฉียงใต้
อุณหภูมิ 28°C
ความชื้น 17%
ความกดอากาศ 1011 hPa
ทัศนวิสัย: 16.1 กม.
ท้องฟ้าแจ่มใส

METAR: KELP 181351Z 16005KT 10SM CLR 28/01 A2984 RMK AO2 SLP015 T02830006

เวลา: 09:30 (14:30 UTC)

การพยากรณ์

รายงานได้ทำขึ้นเมื่อ 3 ชั่วโมงและ 3 นาทีที่แล้ว ณ เวลา 11:27 UTC
การพยากรณ์มีผลตั้งแต่วันที่ 18 ณ เวลา 12 UTC จนถึงวันที่ 19 ณ เวลา 12 UTC
ลม 12 นอตจากตะวันตก
ทัศนวิสัย: 10 กม.
ท้องฟ้าแจ่มใส
จาก 18 ณ เวลา 1700 UTC
ลม 12 นอตจากตะวันตก/ตะวันตกเฉียงใต้โดยมีลมกระโชกได้ถึง20 นอต
ทัศนวิสัย: 10 กม.
ท้องฟ้าแจ่มใส
จาก 19 ณ เวลา 0100 UTC
ลม 6 นอตจากตะวันตกเฉียงใต้
ทัศนวิสัย: 10 กม.
ท้องฟ้าแจ่มใส

TAF: KELP 181127Z 1812/1912 26012KT P6SM SKC FM181700 25012G20KT P6SM SKC FM190100 23006KT P6SM SKC

สังเกตการณ์สภาพอากาศและพยากรณ์อากาศของสนามบินมากกว่า 4000 แห่ง (รายงาน METAR และ TAF).

สถานีที่ดูได้จะแสดงไว้ด้วยจุดสีเหลืองและสีแดงบนแผนที่.

เลื่อนเมาส์ไปเหนือจุดเพื่อดูชื่อสถานี.

แล้วคลิกเพื่อดูสังเกตการณ์และการพยากรณ์สภาพอากาศ.

ในการเปลี่ยนแผนที่: คลิกที่ปุ่มสีเขียวที่มีกากบาทสีดำเพื่อซูมเข้า; ที่ปุ่มสีเขียวที่มีขีดเพื่อซูมออก; หรือที่ลูกศรสีเขียวเพื่อไปยังแผนที่ที่อยู่ติดกัน.


METAR-TAF: